Racecast

Camille Ruggles

Center (CA) · 12 · CO D2A2A · Compare head to head

Athlete rating 117.2 2017 XC season
Best race 124.0 TF
Races 89
Seasons 6 2012 — 2018

RankedNation #20169·CO #625·CO D2A #120·Team #7 ?

Speed rating — all races

Cross Country

XC speed rating

2017 XC 115.1

Center (CA) · Grade 12

Date Meet Event Result Place Rating Difficulty PR/SR Flags
2017-10-28 Norris Penrose Event Center 5000m 22:00.2 28th · 1st on team 118.0 +0.067 CSR RSR
2017-10-19 Elmwood Golf Course 5000m 21:54 1st · 1st on team 117.0 +0.038 ★CR CSR RSR
2017-10-06 Confluence Park 5000m 22:24.1 54th · 1st on team 109.8 -0.000 ★CR CSR
2017-09-15 Fort Lewis College 5000m 21:52 36th · 1st on team 114.9 +0.020 ★CR CSR
2017-09-09 Cattails Golf Course 5000m 21:39.1 41st · 1st on team 115.6 +0.012 SR CSR RSR

2016 XC 113.7

Center (CA) · Grade 11

Date Meet Event Result Place Rating Difficulty PR/SR Flags
2016-10-29 Norris Penrose Event Center 5000m 23:12.1 42nd · 1st on team 114.4 +0.067 CSR
2016-10-20 Fountain Creek Regional 5000m 22:32.8 14th · 2nd on team 111.2 +0.016 ★CR CSR
2016-10-14 Chapman Park 5000m 23:21 21st · 1st on team 110.3 +0.044 ★CR CSR
2016-09-27 Hollydot Golf Course 5000m 22:32 7th · 1st on team 116.5 +0.064 ★CR CSR RSR
2016-09-16 Hillcrest Golf Club 5000m 22:11 18th · 1st on team 115.4 +0.040 ★CR CSR RSR
2016-09-10 Cattails Golf Course 5000m 21:39.6 30th · 1st on team 114.8 +0.012 SR CSR
2016-09-03 Colorado Mountain College 5000m 24:25.5 19th · 1st on team 115.4 +0.148 ★CR CSR RSR
2016-08-25 Norris Penrose Event Center 5000m 23:26.2 12th · 1st on team 111.3 +0.067 SR CSR RSR

2015 XC 115.9

Center (CA) · Grade 10

Date Meet Event Result Place Rating Difficulty PR/SR Flags
2015-10-31 Norris Penrose Event Center 5000m 21:59.3 27th · 1st on team 119.3 +0.067 ★CR CSR RSR
2015-10-22 Elmwood Golf Course 5000m 22:33 10th · 1st on team 113.6 +0.038 CR CSR
2015-10-16 Monte Vista Golf Course 5000m 22:10 9th · 1st on team 116.6 +0.046 ★CR CSR
2015-10-09 Centauri High School 5000m 20:33 1st · 1st on team 116.9 -0.029 ★PR ★CR SR CSR
2015-09-25 Center Community Park 5000m 22:30 1st · 1st on team 117.8 +0.073 ★CR CSR RSR
2015-09-11 Hillcrest Golf Club 5000m 22:22.7 9th · 1st on team 115.1 +0.040 CR CSR
2015-09-05 Cattails Golf Course 5000m 21:23.3 8th · 1st on team 115.7 +0.012 PR ★CR SR CSR RSR
2015-08-28 Norris Penrose Event Center 5000m 23:24.9 7th · 1st on team 112.1 +0.067 CR SR CSR RSR

2014 XC 109.4

Center (CA) · Grade 9

Date Meet Event Result Place Rating Difficulty PR/SR Flags
2014-10-25 Norris Penrose Event Center 5000m 23:25.6 35th · 1st on team 113.3 +0.067 CR R CSR RSR
2014-10-16 Elmwood Golf Course 5000m 23:16 5th · 1st on team 110.5 +0.038 CR CSR
2014-09-06 Cattails Golf Course 5000m 22:30.4 51st · 1st on team 111.1 +0.012 PR CR R SR CSR RSR
2014-08-29 Rocky Ford High School 5000m 24:55 1st · 1st on team 102.6 +0.041 PR ★CR R SR CSR RSR

2012 XC 90.5

Center (CA) · Grade -

Date Meet Event Result Place Rating Difficulty PR/SR Flags
2012-09-08 Cattails Golf Course 2092m 11:33 15th · 2nd on team 90.5 ★PR ★CR R SR CSR RSR

Track & Field

TF speed rating

2018 TF 114.0

Center (CA) · Grade 12

Date Meet Event Result Place Rating Difficulty PR/SR Flags
2018-05-19 CHSAA 2A State Championships 1600m 6:09.42 18th · 1st on team 114.9 -0.011
2018-05-19 CHSAA 2A State Championships 3200m 12:42.62 7th · 1st on team 119.7 -0.011 SR
2018-05-12 Monte Vista Last Chance Meet hj NH +0.028
2018-05-12 Monte Vista Last Chance Meet 1600m 5:55.47 1st · 1st on team 124.0 +0.028 ★R SR RSR
2018-05-12 Monte Vista Last Chance Meet 800m 2:47.12 5th · 1st on team 117.5 +0.028
2018-05-05 Terry Allen Invitational 800m 2:45.31 3rd · 1st on team 116.7 +0.014
2018-05-05 Terry Allen Invitational 1600m 5:59.36 1st · 1st on team 120.5 +0.014 SR RSR
2018-04-28 High Altitude Challenge hj 4' 6" +0.020
2018-04-28 High Altitude Challenge 3200m 14:17.57 1st · 1st on team 110.4 +0.020
2018-04-28 High Altitude Challenge 800m 2:47.47 4th · 1st on team 116.2 +0.020
2018-04-21 Thunderbird Invitational hj 4' 7" +0.025
2018-04-21 Thunderbird Invitational 1600m 6:09.79 1st · 1st on team 118.7 +0.025 SR RSR
2018-04-21 Thunderbird Invitational 400m 1:13.66 4th · 3rd on team +0.025 SR
2018-04-07 Salida Invitational hj NH +0.018
2018-04-07 Salida Invitational 1600m 6:10.14 3rd · 1st on team 117.5 +0.018 SR
2018-04-07 Salida Invitational 800m 2:49.51 6th · 1st on team 114.4 +0.018
2018-03-29 La Junta Open hj 4-04.00 -0.004
2018-03-29 La Junta Open 3200m 12:59.49 2nd · 1st on team 118.0 -0.004 SR RSR
2018-03-29 La Junta Open 1600m 6:22.24 6th · 1st on team 111.5 -0.004
2018-03-29 La Junta Open 800m 2:58.49 11th · 1st on team 106.5 -0.004
2018-03-22 Denver South Rebel Invitational hj DQ -0.011
2018-03-22 Denver South Rebel Invitational 1600m 6:17.72 19th · 1st on team 111.7 -0.011 SR
2018-03-22 Denver South Rebel Invitational 3200m 13:37.33 11th · 1st on team 111.8 -0.011 SR
2018-03-22 Denver South Rebel Invitational 800m 2:43.66 16th · 1st on team 114.9 -0.011 ★PR SR RSR
2018-03-16 Center Invitational 3200m 14:50.15 3rd · 1st on team 106.7 +0.028
2018-03-16 Center Invitational 1600m 6:57.35 5th · 1st on team 105.3 +0.028
2018-03-10 CSU-Pueblo Early-Bird (HS) hj 4-06.00 -0.006
2018-03-10 CSU-Pueblo Early-Bird (HS) 800m 2:58.83 11th · 1st on team 106.3 -0.006 SR RSR
2018-03-10 CSU-Pueblo Early-Bird (HS) 1600m 6:19.53 8th · 1st on team 112.6 -0.006 SR RSR
2018-03-10 CSU-Pueblo Early-Bird (HS) 3200m 13:41.16 3rd · 1st on team 112.9 -0.006 SR RSR

2017 TF 117.6

Center (CA) · Grade 11

Date Meet Event Result Place Rating Difficulty PR/SR Flags
2017-05-02 High Altitude Challenge 1600m 5:52.81 1st · 1st on team 123.2 +0.020 ★PR SR RSR
2017-05-02 High Altitude Challenge 800m 2:47.62 5th · 1st on team 115.6 +0.020 PR SR
2017-04-14 Petrelli & Hunt Invitational 3200m 12:42.59 6th · 1st on team 121.0 -0.004 SR RSR
2017-04-08 Salida Invitational 1600m 6:03.35 4th · 1st on team 119.5 +0.018 SR RSR
2017-04-08 Salida Invitational 3200m 13:54.12 2nd · 1st on team 112.9 +0.018
2017-04-01 Thunderbird Invational hj NH +0.025
2017-04-01 Thunderbird Invational 1600m 6:21.97 1st · 1st on team 114.5 +0.025 SR RSR
2017-04-01 Thunderbird Invational 3200m 13:32.5 1st · 1st on team 116.4 +0.025 SR RSR

2016 TF 121.6

Center (CA) · Grade 10

Date Meet Event Result Place Rating Difficulty PR/SR Flags
2016-05-21 CHSAA 2A State Championships 3200m 12:23.82 9th · 1st on team 123.5 -0.011 ★PR R SR RSR
2016-05-07 Terry Allen Invitational hj NH +0.014
2016-05-07 Terry Allen Invitational 1600m 5:54.49 1st · 1st on team 122.0 +0.014 PR SR RSR
2016-04-27 Pine River Invitational hj 4-05.00 +0.019
2016-04-27 Pine River Invitational 400m 1:09.03 6th · 1st on team +0.019 ★PR SR
2016-04-27 Pine River Invitational 1600m 6:04.79 1st · 1st on team 119.2 +0.019 PR SR RSR

2015 TF 118.5

Center (CA) · Grade 9

Date Meet Event Result Place Rating Difficulty PR/SR Flags
2015-05-16 Colorado 1A 2A 3A State Championships 3200m 12:46.97 10th · 1st on team 118.7 -0.011
2015-05-09 IML/SPL Invitational hj 4-08.00 +0.028
2015-05-09 IML/SPL Invitational 3200m 13:24.5 1st · 1st on team 117.5 +0.028
2015-05-09 IML/SPL Invitational 1600m 6:08.76 4th · 1st on team 119.2 +0.028
2015-05-02 Terry Allen Invitational hj 4-03.00 +0.014
2015-05-02 Terry Allen Invitational 1600m 6:08.48 9th · 1st on team 117.8 +0.014
2015-05-02 Terry Allen Invitational 3200m 12:43.01 1st · 1st on team 122.7 +0.014
2015-04-25 Springfield Invitational 3200m 13:18 1st · 1st on team 115.6 +0.001
2015-04-23 Primero Invitational hj 4-02.00 +0.015
2015-04-23 Primero Invitational 3200m 12:41 1st · 1st on team 123.0 +0.015 PR R SR RSR
2015-04-23 Primero Invitational 1600m 6:08.21 1st · 1st on team 117.8 +0.015
2015-04-18 Pine River Invitational hj 4-04.00 +0.019
2015-04-18 Pine River Invitational 3200m 13:20.08 1st · 1st on team 116.9 +0.019
2015-04-11 Salida Invitational hj 4-02.00 +0.018
2015-04-11 Salida Invitational 3200m 13:19.77 1st · 1st on team 117.1 +0.018
2015-04-04 Thunderbird Invitational hj NH +0.025
2015-04-04 Thunderbird Invitational 1600m 6:05.15 1st · 1st on team 120.1 +0.025 PR R SR RSR
2015-03-27 La Junta Open hj 4-02.00 -0.004
2015-03-27 La Junta Open 3200m 13:10.2 2nd · 1st on team 115.8 -0.004 PR R SR RSR